sensor_id;sensor_type;location;lat;lon;timestamp;P1;durP1;ratioP1;P2;durP2;ratioP2
61093;SDS011;46976;52.942;6.810;2023-10-08T00:01:07;3.17;;;1.08;;
61093;SDS011;46976;52.942;6.810;2023-10-08T00:03:37;2.75;;;1.30;;
61093;SDS011;46976;52.942;6.810;2023-10-08T00:06:03;3.28;;;1.08;;
61093;SDS011;46976;52.942;6.810;2023-10-08T00:08:35;1.48;;;1.00;;
61093;SDS011;46976;52.942;6.810;2023-10-08T00:11:00;1.95;;;1.02;;
61093;SDS011;46976;52.942;6.810;2023-10-08T00:13:35;3.05;;;1.10;;
61093;SDS011;46976;52.942;6.810;2023-10-08T00:16:05;1.58;;;0.80;;
61093;SDS011;46976;52.942;6.810;2023-10-08T00:18:34;1.85;;;1.08;;
61093;SDS011;46976;52.942;6.810;2023-10-08T00:21:01;2.95;;;1.27;;
61093;SDS011;46976;52.942;6.810;2023-10-08T00:23:36;1.35;;;1.00;;
61093;SDS011;46976;52.942;6.810;2023-10-08T00:26:07;3.30;;;1.10;;
61093;SDS011;46976;52.942;6.810;2023-10-08T00:28:33;2.05;;;0.88;;
61093;SDS011;46976;52.942;6.810;2023-10-08T00:31:01;2.33;;;0.90;;
61093;SDS011;46976;52.942;6.810;2023-10-08T00:33:36;1.50;;;0.80;;
61093;SDS011;46976;52.942;6.810;2023-10-08T00:36:02;1.90;;;0.80;;
61093;SDS011;46976;52.942;6.810;2023-10-08T00:38:43;1.83;;;0.90;;
61093;SDS011;46976;52.942;6.810;2023-10-08T00:41:13;1.65;;;0.90;;
61093;SDS011;46976;52.942;6.810;2023-10-08T00:43:40;2.00;;;0.90;;
61093;SDS011;46976;52.942;6.810;2023-10-08T00:46:06;2.00;;;0.90;;
61093;SDS011;46976;52.942;6.810;2023-10-08T00:48:47;2.85;;;0.85;;
61093;SDS011;46976;52.942;6.810;2023-10-08T00:51:15;2.30;;;1.00;;
61093;SDS011;46976;52.942;6.810;2023-10-08T00:53:47;1.50;;;0.75;;
61093;SDS011;46976;52.942;6.810;2023-10-08T00:56:17;2.88;;;0.90;;
61093;SDS011;46976;52.942;6.810;2023-10-08T00:58:44;2.08;;;0.90;;
61093;SDS011;46976;52.942;6.810;2023-10-08T01:01:18;2.10;;;0.93;;
61093;SDS011;46976;52.942;6.810;2023-10-08T01:03:46;2.08;;;0.80;;
61093;SDS011;46976;52.942;6.810;2023-10-08T01:06:12;2.78;;;1.00;;
61093;SDS011;46976;52.942;6.810;2023-10-08T01:08:43;2.50;;;0.80;;
61093;SDS011;46976;52.942;6.810;2023-10-08T01:13:56;1.45;;;0.80;;
61093;SDS011;46976;52.942;6.810;2023-10-08T01:16:24;1.58;;;0.90;;
61093;SDS011;46976;52.942;6.810;2023-10-08T01:18:52;4.63;;;1.10;;
61093;SDS011;46976;52.942;6.810;2023-10-08T01:21:19;2.45;;;0.90;;
61093;SDS011;46976;52.942;6.810;2023-10-08T01:23:57;2.08;;;0.90;;
61093;SDS011;46976;52.942;6.810;2023-10-08T01:26:25;2.92;;;1.23;;
61093;SDS011;46976;52.942;6.810;2023-10-08T01:28:54;1.73;;;0.75;;
61093;SDS011;46976;52.942;6.810;2023-10-08T01:31:20;1.20;;;0.80;;
61093;SDS011;46976;52.942;6.810;2023-10-08T01:33:45;2.17;;;1.00;;
61093;SDS011;46976;52.942;6.810;2023-10-08T01:36:21;2.90;;;1.00;;
61093;SDS011;46976;52.942;6.810;2023-10-08T01:38:48;3.17;;;1.20;;
61093;SDS011;46976;52.942;6.810;2023-10-08T01:41:14;3.17;;;0.90;;
61093;SDS011;46976;52.942;6.810;2023-10-08T01:43:54;1.60;;;1.00;;
61093;SDS011;46976;52.942;6.810;2023-10-08T01:46:19;3.75;;;1.00;;
61093;SDS011;46976;52.942;6.810;2023-10-08T01:48:47;2.28;;;1.00;;
61093;SDS011;46976;52.942;6.810;2023-10-08T01:51:18;2.85;;;1.30;;
61093;SDS011;46976;52.942;6.810;2023-10-08T01:53:54;2.83;;;1.27;;
61093;SDS011;46976;52.942;6.810;2023-10-08T01:56:23;2.50;;;1.23;;
61093;SDS011;46976;52.942;6.810;2023-10-08T01:58:49;2.55;;;1.30;;
61093;SDS011;46976;52.942;6.810;2023-10-08T02:01:19;3.88;;;1.48;;
61093;SDS011;46976;52.942;6.810;2023-10-08T02:03:48;3.35;;;1.20;;
61093;SDS011;46976;52.942;6.810;2023-10-08T02:06:14;3.80;;;1.52;;
61093;SDS011;46976;52.942;6.810;2023-10-08T02:08:40;3.00;;;1.40;;
61093;SDS011;46976;52.942;6.810;2023-10-08T02:11:06;3.50;;;1.60;;
61093;SDS011;46976;52.942;6.810;2023-10-08T02:13:33;4.00;;;1.70;;
61093;SDS011;46976;52.942;6.810;2023-10-08T02:15:59;3.08;;;1.42;;
61093;SDS011;46976;52.942;6.810;2023-10-08T02:18:25;2.80;;;1.40;;
61093;SDS011;46976;52.942;6.810;2023-10-08T02:20:51;3.70;;;1.70;;
61093;SDS011;46976;52.942;6.810;2023-10-08T02:23:17;4.93;;;1.60;;
61093;SDS011;46976;52.942;6.810;2023-10-08T02:25:43;3.28;;;1.13;;
61093;SDS011;46976;52.942;6.810;2023-10-08T02:28:09;2.72;;;1.00;;
61093;SDS011;46976;52.942;6.810;2023-10-08T02:30:40;3.33;;;1.20;;
61093;SDS011;46976;52.942;6.810;2023-10-08T02:33:07;2.22;;;1.02;;
61093;SDS011;46976;52.942;6.810;2023-10-08T02:35:39;3.63;;;1.25;;
61093;SDS011;46976;52.942;6.810;2023-10-08T02:38:11;3.38;;;1.20;;
61093;SDS011;46976;52.942;6.810;2023-10-08T02:40:38;5.63;;;1.40;;
61093;SDS011;46976;52.942;6.810;2023-10-08T02:43:09;3.85;;;1.25;;
61093;SDS011;46976;52.942;6.810;2023-10-08T02:45:37;4.85;;;1.50;;
61093;SDS011;46976;52.942;6.810;2023-10-08T02:48:06;3.55;;;1.30;;
61093;SDS011;46976;52.942;6.810;2023-10-08T02:50:38;4.53;;;1.30;;
61093;SDS011;46976;52.942;6.810;2023-10-08T02:53:05;3.78;;;1.40;;
61093;SDS011;46976;52.942;6.810;2023-10-08T02:55:35;2.88;;;1.15;;
61093;SDS011;46976;52.942;6.810;2023-10-08T02:58:07;4.90;;;1.45;;
61093;SDS011;46976;52.942;6.810;2023-10-08T03:00:39;4.63;;;1.55;;
61093;SDS011;46976;52.942;6.810;2023-10-08T03:03:08;5.18;;;1.63;;
61093;SDS011;46976;52.942;6.810;2023-10-08T03:05:50;4.30;;;1.30;;
61093;SDS011;46976;52.942;6.810;2023-10-08T03:08:17;4.10;;;1.35;;
61093;SDS011;46976;52.942;6.810;2023-10-08T03:10:46;4.30;;;1.50;;
61093;SDS011;46976;52.942;6.810;2023-10-08T03:13:15;6.47;;;1.67;;
61093;SDS011;46976;52.942;6.810;2023-10-08T03:15:42;3.92;;;1.30;;
61093;SDS011;46976;52.942;6.810;2023-10-08T03:18:44;4.70;;;1.50;;
61093;SDS011;46976;52.942;6.810;2023-10-08T03:21:15;6.05;;;1.50;;
61093;SDS011;46976;52.942;6.810;2023-10-08T03:24:07;6.07;;;1.40;;
61093;SDS011;46976;52.942;6.810;2023-10-08T03:26:48;6.05;;;1.60;;
61093;SDS011;46976;52.942;6.810;2023-10-08T03:29:20;5.22;;;1.50;;
61093;SDS011;46976;52.942;6.810;2023-10-08T03:31:46;4.97;;;1.92;;
61093;SDS011;46976;52.942;6.810;2023-10-08T03:34:12;4.68;;;1.65;;
61093;SDS011;46976;52.942;6.810;2023-10-08T03:36:38;3.70;;;1.60;;
61093;SDS011;46976;52.942;6.810;2023-10-08T03:39:12;8.00;;;1.90;;
61093;SDS011;46976;52.942;6.810;2023-10-08T03:41:40;7.07;;;1.80;;
61093;SDS011;46976;52.942;6.810;2023-10-08T03:44:06;6.00;;;1.58;;
61093;SDS011;46976;52.942;6.810;2023-10-08T03:46:39;4.93;;;1.63;;
61093;SDS011;46976;52.942;6.810;2023-10-08T03:49:08;4.18;;;1.83;;
61093;SDS011;46976;52.942;6.810;2023-10-08T03:51:53;6.47;;;1.80;;
61093;SDS011;46976;52.942;6.810;2023-10-08T03:54:21;5.35;;;1.80;;
61093;SDS011;46976;52.942;6.810;2023-10-08T03:57:00;7.20;;;1.80;;
61093;SDS011;46976;52.942;6.810;2023-10-08T03:59:29;4.15;;;1.80;;
61093;SDS011;46976;52.942;6.810;2023-10-08T04:02:02;5.85;;;2.10;;
61093;SDS011;46976;52.942;6.810;2023-10-08T04:04:38;4.93;;;1.70;;
61093;SDS011;46976;52.942;6.810;2023-10-08T04:07:23;5.28;;;1.70;;
61093;SDS011;46976;52.942;6.810;2023-10-08T04:09:50;6.15;;;1.88;;
61093;SDS011;46976;52.942;6.810;2023-10-08T04:12:24;6.38;;;1.85;;
61093;SDS011;46976;52.942;6.810;2023-10-08T04:14:52;4.38;;;1.70;;
61093;SDS011;46976;52.942;6.810;2023-10-08T04:19:47;5.50;;;1.70;;
61093;SDS011;46976;52.942;6.810;2023-10-08T04:22:13;5.93;;;1.80;;
61093;SDS011;46976;52.942;6.810;2023-10-08T04:24:43;5.07;;;1.50;;
61093;SDS011;46976;52.942;6.810;2023-10-08T04:27:09;8.40;;;2.08;;
61093;SDS011;46976;52.942;6.810;2023-10-08T04:29:35;4.95;;;1.90;;
61093;SDS011;46976;52.942;6.810;2023-10-08T04:32:04;6.63;;;2.00;;
61093;SDS011;46976;52.942;6.810;2023-10-08T04:34:34;4.95;;;1.80;;
61093;SDS011;46976;52.942;6.810;2023-10-08T04:37:01;4.43;;;1.85;;
61093;SDS011;46976;52.942;6.810;2023-10-08T04:39:28;6.28;;;1.60;;
61093;SDS011;46976;52.942;6.810;2023-10-08T04:41:57;6.78;;;1.70;;
61093;SDS011;46976;52.942;6.810;2023-10-08T04:44:27;6.13;;;1.70;;
61093;SDS011;46976;52.942;6.810;2023-10-08T04:46:57;6.13;;;1.70;;
61093;SDS011;46976;52.942;6.810;2023-10-08T04:49:29;7.47;;;1.80;;
61093;SDS011;46976;52.942;6.810;2023-10-08T04:52:01;4.65;;;1.30;;
61093;SDS011;46976;52.942;6.810;2023-10-08T04:54:38;5.15;;;1.40;;
61093;SDS011;46976;52.942;6.810;2023-10-08T04:57:06;8.05;;;1.58;;
61093;SDS011;46976;52.942;6.810;2023-10-08T04:59:43;6.03;;;1.48;;
61093;SDS011;46976;52.942;6.810;2023-10-08T05:02:11;5.65;;;1.60;;
61093;SDS011;46976;52.942;6.810;2023-10-08T05:04:41;6.15;;;1.60;;
61093;SDS011;46976;52.942;6.810;2023-10-08T05:07:30;5.57;;;1.83;;
61093;SDS011;46976;52.942;6.810;2023-10-08T05:10:25;6.20;;;1.70;;
61093;SDS011;46976;52.942;6.810;2023-10-08T05:12:52;5.50;;;1.88;;
61093;SDS011;46976;52.942;6.810;2023-10-08T05:18:02;6.25;;;2.00;;
61093;SDS011;46976;52.942;6.810;2023-10-08T05:20:54;6.28;;;2.00;;
61093;SDS011;46976;52.942;6.810;2023-10-08T05:23:39;9.00;;;2.22;;
61093;SDS011;46976;52.942;6.810;2023-10-08T05:26:18;5.60;;;1.92;;
61093;SDS011;46976;52.942;6.810;2023-10-08T05:28:56;7.00;;;2.05;;
61093;SDS011;46976;52.942;6.810;2023-10-08T05:31:48;6.75;;;2.10;;
61093;SDS011;46976;52.942;6.810;2023-10-08T05:34:18;7.88;;;2.08;;
61093;SDS011;46976;52.942;6.810;2023-10-08T05:36:48;6.13;;;2.17;;
61093;SDS011;46976;52.942;6.810;2023-10-08T05:39:46;6.70;;;1.80;;
61093;SDS011;46976;52.942;6.810;2023-10-08T05:42:20;5.60;;;2.22;;
61093;SDS011;46976;52.942;6.810;2023-10-08T05:44:56;6.53;;;2.75;;
61093;SDS011;46976;52.942;6.810;2023-10-08T05:47:35;7.50;;;2.75;;
61093;SDS011;46976;52.942;6.810;2023-10-08T05:50:01;6.93;;;2.88;;
61093;SDS011;46976;52.942;6.810;2023-10-08T05:52:43;6.47;;;2.38;;
61093;SDS011;46976;52.942;6.810;2023-10-08T05:55:18;6.65;;;2.70;;
61093;SDS011;46976;52.942;6.810;2023-10-08T05:58:03;6.97;;;2.60;;
61093;SDS011;46976;52.942;6.810;2023-10-08T06:00:46;7.10;;;2.47;;
61093;SDS011;46976;52.942;6.810;2023-10-08T06:03:15;6.63;;;2.67;;
61093;SDS011;46976;52.942;6.810;2023-10-08T06:06:23;4.83;;;2.03;;
61093;SDS011;46976;52.942;6.810;2023-10-08T06:08:50;7.30;;;2.58;;
61093;SDS011;46976;52.942;6.810;2023-10-08T06:11:35;7.32;;;2.80;;
61093;SDS011;46976;52.942;6.810;2023-10-08T06:14:21;5.75;;;2.40;;
61093;SDS011;46976;52.942;6.810;2023-10-08T06:17:07;6.70;;;2.42;;
61093;SDS011;46976;52.942;6.810;2023-10-08T06:19:48;7.30;;;2.83;;
61093;SDS011;46976;52.942;6.810;2023-10-08T06:22:15;6.75;;;2.53;;
61093;SDS011;46976;52.942;6.810;2023-10-08T06:24:40;6.78;;;2.70;;
61093;SDS011;46976;52.942;6.810;2023-10-08T06:27:06;6.32;;;2.88;;
61093;SDS011;46976;52.942;6.810;2023-10-08T06:29:32;7.13;;;2.90;;
61093;SDS011;46976;52.942;6.810;2023-10-08T06:31:58;7.80;;;2.95;;
61093;SDS011;46976;52.942;6.810;2023-10-08T06:34:30;7.15;;;2.80;;
61093;SDS011;46976;52.942;6.810;2023-10-08T06:36:58;7.75;;;2.90;;
61093;SDS011;46976;52.942;6.810;2023-10-08T06:39:25;6.55;;;2.80;;
61093;SDS011;46976;52.942;6.810;2023-10-08T06:42:20;6.50;;;2.88;;
61093;SDS011;46976;52.942;6.810;2023-10-08T06:44:46;6.68;;;2.88;;
61093;SDS011;46976;52.942;6.810;2023-10-08T06:47:13;7.72;;;2.90;;
61093;SDS011;46976;52.942;6.810;2023-10-08T06:49:41;7.32;;;2.83;;
61093;SDS011;46976;52.942;6.810;2023-10-08T06:54:38;8.55;;;2.80;;
61093;SDS011;46976;52.942;6.810;2023-10-08T06:57:04;6.95;;;2.65;;
61093;SDS011;46976;52.942;6.810;2023-10-08T06:59:38;7.05;;;2.70;;
61093;SDS011;46976;52.942;6.810;2023-10-08T07:02:07;7.40;;;2.60;;
61093;SDS011;46976;52.942;6.810;2023-10-08T07:04:35;7.35;;;2.58;;
61093;SDS011;46976;52.942;6.810;2023-10-08T07:07:00;7.05;;;2.53;;
61093;SDS011;46976;52.942;6.810;2023-10-08T07:09:26;8.25;;;2.30;;
61093;SDS011;46976;52.942;6.810;2023-10-08T07:11:51;6.78;;;2.55;;
61093;SDS011;46976;52.942;6.810;2023-10-08T07:14:23;5.40;;;2.25;;
61093;SDS011;46976;52.942;6.810;2023-10-08T07:16:58;7.35;;;2.30;;
61093;SDS011;46976;52.942;6.810;2023-10-08T07:19:25;7.88;;;2.10;;
61093;SDS011;46976;52.942;6.810;2023-10-08T07:22:02;7.03;;;2.20;;
61093;SDS011;46976;52.942;6.810;2023-10-08T07:24:46;6.70;;;2.20;;
61093;SDS011;46976;52.942;6.810;2023-10-08T07:27:16;7.10;;;2.05;;
61093;SDS011;46976;52.942;6.810;2023-10-08T07:29:55;5.47;;;1.90;;
61093;SDS011;46976;52.942;6.810;2023-10-08T07:32:20;5.90;;;1.85;;
61093;SDS011;46976;52.942;6.810;2023-10-08T07:34:46;6.20;;;1.98;;
61093;SDS011;46976;52.942;6.810;2023-10-08T07:37:12;5.32;;;1.73;;
61093;SDS011;46976;52.942;6.810;2023-10-08T07:39:39;7.70;;;1.98;;
61093;SDS011;46976;52.942;6.810;2023-10-08T07:42:12;6.72;;;1.75;;
61093;SDS011;46976;52.942;6.810;2023-10-08T07:44:38;7.40;;;1.85;;
61093;SDS011;46976;52.942;6.810;2023-10-08T07:47:04;7.20;;;1.73;;
61093;SDS011;46976;52.942;6.810;2023-10-08T07:49:35;6.50;;;1.73;;
61093;SDS011;46976;52.942;6.810;2023-10-08T07:52:01;7.88;;;2.00;;
61093;SDS011;46976;52.942;6.810;2023-10-08T07:54:30;9.90;;;2.00;;
61093;SDS011;46976;52.942;6.810;2023-10-08T07:56:59;7.20;;;1.70;;
61093;SDS011;46976;52.942;6.810;2023-10-08T07:59:43;7.68;;;1.80;;
61093;SDS011;46976;52.942;6.810;2023-10-08T08:02:11;6.30;;;1.63;;
61093;SDS011;46976;52.942;6.810;2023-10-08T08:04:38;7.70;;;1.60;;
61093;SDS011;46976;52.942;6.810;2023-10-08T08:07:05;9.55;;;1.65;;
61093;SDS011;46976;52.942;6.810;2023-10-08T08:09:31;5.72;;;1.50;;
61093;SDS011;46976;52.942;6.810;2023-10-08T08:12:03;10.25;;;1.77;;
61093;SDS011;46976;52.942;6.810;2023-10-08T08:14:38;8.18;;;1.40;;
61093;SDS011;46976;52.942;6.810;2023-10-08T08:17:06;7.07;;;1.52;;
61093;SDS011;46976;52.942;6.810;2023-10-08T08:19:39;6.57;;;1.40;;
61093;SDS011;46976;52.942;6.810;2023-10-08T08:22:05;6.50;;;1.50;;
61093;SDS011;46976;52.942;6.810;2023-10-08T08:24:31;8.02;;;1.40;;
61093;SDS011;46976;52.942;6.810;2023-10-08T08:27:01;7.00;;;1.42;;
61093;SDS011;46976;52.942;6.810;2023-10-08T08:29:33;7.55;;;1.60;;
61093;SDS011;46976;52.942;6.810;2023-10-08T08:32:13;8.10;;;1.67;;
61093;SDS011;46976;52.942;6.810;2023-10-08T08:34:41;9.00;;;1.50;;
61093;SDS011;46976;52.942;6.810;2023-10-08T08:37:09;8.82;;;1.60;;
61093;SDS011;46976;52.942;6.810;2023-10-08T08:39:36;9.13;;;1.77;;
61093;SDS011;46976;52.942;6.810;2023-10-08T08:42:03;7.88;;;1.50;;
61093;SDS011;46976;52.942;6.810;2023-10-08T08:44:33;7.32;;;1.55;;
61093;SDS011;46976;52.942;6.810;2023-10-08T08:47:04;7.30;;;1.40;;
61093;SDS011;46976;52.942;6.810;2023-10-08T08:49:35;6.97;;;1.30;;
61093;SDS011;46976;52.942;6.810;2023-10-08T08:52:04;8.77;;;1.33;;
61093;SDS011;46976;52.942;6.810;2023-10-08T08:54:30;6.65;;;1.50;;
61093;SDS011;46976;52.942;6.810;2023-10-08T08:56:57;7.40;;;1.40;;
61093;SDS011;46976;52.942;6.810;2023-10-08T08:59:25;8.60;;;1.60;;
61093;SDS011;46976;52.942;6.810;2023-10-08T09:01:52;6.60;;;1.45;;
61093;SDS011;46976;52.942;6.810;2023-10-08T09:04:27;6.95;;;1.23;;
61093;SDS011;46976;52.942;6.810;2023-10-08T09:06:55;8.15;;;1.48;;
61093;SDS011;46976;52.942;6.810;2023-10-08T09:09:20;8.25;;;1.20;;
61093;SDS011;46976;52.942;6.810;2023-10-08T09:11:51;8.25;;;1.50;;
61093;SDS011;46976;52.942;6.810;2023-10-08T09:14:21;6.72;;;1.33;;
61093;SDS011;46976;52.942;6.810;2023-10-08T09:16:47;8.45;;;1.42;;
61093;SDS011;46976;52.942;6.810;2023-10-08T09:19:14;6.82;;;1.40;;
61093;SDS011;46976;52.942;6.810;2023-10-08T09:24:24;7.32;;;1.50;;
61093;SDS011;46976;52.942;6.810;2023-10-08T09:26:51;5.63;;;1.27;;
61093;SDS011;46976;52.942;6.810;2023-10-08T09:29:17;6.30;;;1.40;;
61093;SDS011;46976;52.942;6.810;2023-10-08T09:31:50;6.75;;;1.40;;
61093;SDS011;46976;52.942;6.810;2023-10-08T09:34:30;6.35;;;1.40;;
61093;SDS011;46976;52.942;6.810;2023-10-08T09:36:56;8.23;;;1.45;;
61093;SDS011;46976;52.942;6.810;2023-10-08T09:39:25;6.88;;;1.45;;
61093;SDS011;46976;52.942;6.810;2023-10-08T09:41:54;7.63;;;1.60;;
61093;SDS011;46976;52.942;6.810;2023-10-08T09:44:23;7.45;;;1.40;;
61093;SDS011;46976;52.942;6.810;2023-10-08T09:46:53;5.65;;;1.20;;
61093;SDS011;46976;52.942;6.810;2023-10-08T09:49:29;7.35;;;1.27;;
61093;SDS011;46976;52.942;6.810;2023-10-08T09:52:19;9.77;;;2.08;;
61093;SDS011;46976;52.942;6.810;2023-10-08T09:54:59;7.78;;;1.33;;
61093;SDS011;46976;52.942;6.810;2023-10-08T09:57:28;9.32;;;1.58;;
61093;SDS011;46976;52.942;6.810;2023-10-08T09:59:55;7.55;;;1.40;;
61093;SDS011;46976;52.942;6.810;2023-10-08T10:02:22;8.65;;;1.50;;
61093;SDS011;46976;52.942;6.810;2023-10-08T10:04:52;7.13;;;1.58;;
61093;SDS011;46976;52.942;6.810;2023-10-08T10:07:20;9.23;;;1.73;;
61093;SDS011;46976;52.942;6.810;2023-10-08T10:09:49;8.38;;;1.67;;
61093;SDS011;46976;52.942;6.810;2023-10-08T10:14:54;8.90;;;1.70;;
61093;SDS011;46976;52.942;6.810;2023-10-08T10:17:21;8.30;;;1.45;;
61093;SDS011;46976;52.942;6.810;2023-10-08T10:19:53;9.82;;;1.90;;
61093;SDS011;46976;52.942;6.810;2023-10-08T10:24:56;8.35;;;1.60;;
61093;SDS011;46976;52.942;6.810;2023-10-08T10:27:23;7.80;;;1.42;;
61093;SDS011;46976;52.942;6.810;2023-10-08T10:29:49;11.02;;;1.92;;
61093;SDS011;46976;52.942;6.810;2023-10-08T10:32:15;7.70;;;1.30;;
61093;SDS011;46976;52.942;6.810;2023-10-08T10:34:44;6.82;;;1.60;;
61093;SDS011;46976;52.942;6.810;2023-10-08T10:37:16;7.82;;;1.30;;
61093;SDS011;46976;52.942;6.810;2023-10-08T10:39:54;9.43;;;1.60;;
61093;SDS011;46976;52.942;6.810;2023-10-08T10:42:24;8.20;;;1.58;;
61093;SDS011;46976;52.942;6.810;2023-10-08T10:44:52;7.85;;;1.50;;
61093;SDS011;46976;52.942;6.810;2023-10-08T10:47:18;8.38;;;1.70;;
61093;SDS011;46976;52.942;6.810;2023-10-08T10:49:51;8.18;;;1.40;;
61093;SDS011;46976;52.942;6.810;2023-10-08T10:52:40;8.60;;;1.70;;
61093;SDS011;46976;52.942;6.810;2023-10-08T10:55:18;6.85;;;1.25;;
61093;SDS011;46976;52.942;6.810;2023-10-08T10:57:46;8.38;;;1.77;;
61093;SDS011;46976;52.942;6.810;2023-10-08T11:00:29;6.57;;;1.48;;
61093;SDS011;46976;52.942;6.810;2023-10-08T11:02:56;6.03;;;1.30;;
61093;SDS011;46976;52.942;6.810;2023-10-08T11:05:34;7.85;;;1.30;;
61093;SDS011;46976;52.942;6.810;2023-10-08T11:10:31;8.48;;;1.70;;
61093;SDS011;46976;52.942;6.810;2023-10-08T11:13:03;8.10;;;1.40;;
61093;SDS011;46976;52.942;6.810;2023-10-08T11:15:39;5.68;;;1.20;;
61093;SDS011;46976;52.942;6.810;2023-10-08T11:18:13;7.25;;;1.50;;
61093;SDS011;46976;52.942;6.810;2023-10-08T11:20:43;7.35;;;1.30;;
61093;SDS011;46976;52.942;6.810;2023-10-08T11:23:09;7.68;;;1.55;;
61093;SDS011;46976;52.942;6.810;2023-10-08T11:25:54;9.38;;;1.77;;
61093;SDS011;46976;52.942;6.810;2023-10-08T11:28:25;8.48;;;1.48;;
61093;SDS011;46976;52.942;6.810;2023-10-08T11:30:52;8.05;;;1.58;;
61093;SDS011;46976;52.942;6.810;2023-10-08T11:33:18;8.48;;;1.40;;
61093;SDS011;46976;52.942;6.810;2023-10-08T11:35:54;7.35;;;1.55;;
61093;SDS011;46976;52.942;6.810;2023-10-08T11:38:24;7.07;;;1.42;;
61093;SDS011;46976;52.942;6.810;2023-10-08T11:40:50;5.55;;;1.20;;
61093;SDS011;46976;52.942;6.810;2023-10-08T11:43:21;5.57;;;1.30;;
61093;SDS011;46976;52.942;6.810;2023-10-08T11:45:48;7.82;;;1.73;;
61093;SDS011;46976;52.942;6.810;2023-10-08T11:48:14;5.93;;;1.15;;
61093;SDS011;46976;52.942;6.810;2023-10-08T11:50:47;7.65;;;1.60;;
61093;SDS011;46976;52.942;6.810;2023-10-08T11:53:15;7.03;;;1.30;;
61093;SDS011;46976;52.942;6.810;2023-10-08T11:55:44;6.10;;;1.30;;
61093;SDS011;46976;52.942;6.810;2023-10-08T11:58:13;5.68;;;1.30;;
61093;SDS011;46976;52.942;6.810;2023-10-08T12:00:43;8.00;;;1.50;;
61093;SDS011;46976;52.942;6.810;2023-10-08T12:03:13;5.97;;;1.38;;
61093;SDS011;46976;52.942;6.810;2023-10-08T12:05:46;7.53;;;1.60;;
61093;SDS011;46976;52.942;6.810;2023-10-08T12:08:23;7.47;;;1.55;;
61093;SDS011;46976;52.942;6.810;2023-10-08T12:10:50;8.15;;;1.52;;
61093;SDS011;46976;52.942;6.810;2023-10-08T12:13:19;7.25;;;1.23;;
61093;SDS011;46976;52.942;6.810;2023-10-08T12:15:51;9.52;;;1.75;;
61093;SDS011;46976;52.942;6.810;2023-10-08T12:18:37;7.35;;;1.40;;
61093;SDS011;46976;52.942;6.810;2023-10-08T12:21:07;7.78;;;1.35;;
61093;SDS011;46976;52.942;6.810;2023-10-08T12:23:39;7.53;;;1.38;;
61093;SDS011;46976;52.942;6.810;2023-10-08T12:26:06;6.90;;;1.40;;
61093;SDS011;46976;52.942;6.810;2023-10-08T12:28:35;6.25;;;1.30;;
61093;SDS011;46976;52.942;6.810;2023-10-08T12:31:03;7.45;;;1.48;;
61093;SDS011;46976;52.942;6.810;2023-10-08T12:33:29;8.07;;;1.50;;
61093;SDS011;46976;52.942;6.810;2023-10-08T12:35:56;7.15;;;1.33;;
61093;SDS011;46976;52.942;6.810;2023-10-08T12:38:23;8.02;;;1.27;;
61093;SDS011;46976;52.942;6.810;2023-10-08T12:40:53;7.72;;;1.63;;
61093;SDS011;46976;52.942;6.810;2023-10-08T12:43:19;7.45;;;1.40;;
61093;SDS011;46976;52.942;6.810;2023-10-08T12:45:46;7.75;;;1.50;;
61093;SDS011;46976;52.942;6.810;2023-10-08T12:48:17;6.57;;;1.25;;
61093;SDS011;46976;52.942;6.810;2023-10-08T12:50:46;7.57;;;1.52;;
61093;SDS011;46976;52.942;6.810;2023-10-08T12:53:21;8.18;;;1.40;;
61093;SDS011;46976;52.942;6.810;2023-10-08T12:56:02;6.43;;;1.40;;
61093;SDS011;46976;52.942;6.810;2023-10-08T12:58:36;7.47;;;1.58;;
61093;SDS011;46976;52.942;6.810;2023-10-08T13:01:06;7.68;;;1.65;;
61093;SDS011;46976;52.942;6.810;2023-10-08T13:03:35;8.82;;;1.80;;
61093;SDS011;46976;52.942;6.810;2023-10-08T13:06:09;7.60;;;1.70;;
61093;SDS011;46976;52.942;6.810;2023-10-08T13:08:47;7.40;;;1.48;;
61093;SDS011;46976;52.942;6.810;2023-10-08T13:11:22;8.68;;;1.70;;
61093;SDS011;46976;52.942;6.810;2023-10-08T13:13:49;7.80;;;1.55;;
61093;SDS011;46976;52.942;6.810;2023-10-08T13:16:21;9.02;;;1.75;;
61093;SDS011;46976;52.942;6.810;2023-10-08T13:18:48;6.97;;;1.40;;
61093;SDS011;46976;52.942;6.810;2023-10-08T13:21:15;10.00;;;1.77;;
61093;SDS011;46976;52.942;6.810;2023-10-08T13:23:41;5.90;;;1.30;;
61093;SDS011;46976;52.942;6.810;2023-10-08T13:26:07;9.60;;;1.70;;
61093;SDS011;46976;52.942;6.810;2023-10-08T13:28:36;7.07;;;1.38;;
61093;SDS011;46976;52.942;6.810;2023-10-08T13:31:05;7.28;;;1.45;;
61093;SDS011;46976;52.942;6.810;2023-10-08T13:33:37;7.63;;;1.40;;
61093;SDS011;46976;52.942;6.810;2023-10-08T13:36:08;6.53;;;1.48;;
61093;SDS011;46976;52.942;6.810;2023-10-08T13:38:35;8.07;;;1.67;;
61093;SDS011;46976;52.942;6.810;2023-10-08T13:41:02;7.32;;;1.60;;
61093;SDS011;46976;52.942;6.810;2023-10-08T13:43:40;5.63;;;1.30;;
61093;SDS011;46976;52.942;6.810;2023-10-08T13:46:06;8.63;;;1.33;;
61093;SDS011;46976;52.942;6.810;2023-10-08T13:48:38;6.38;;;1.30;;
61093;SDS011;46976;52.942;6.810;2023-10-08T13:51:05;5.68;;;1.20;;
61093;SDS011;46976;52.942;6.810;2023-10-08T13:53:39;7.00;;;1.52;;
61093;SDS011;46976;52.942;6.810;2023-10-08T13:56:06;6.47;;;1.17;;
61093;SDS011;46976;52.942;6.810;2023-10-08T13:58:32;6.43;;;1.30;;
61093;SDS011;46976;52.942;6.810;2023-10-08T14:01:01;8.82;;;1.45;;
61093;SDS011;46976;52.942;6.810;2023-10-08T14:03:29;7.10;;;1.80;;
61093;SDS011;46976;52.942;6.810;2023-10-08T14:05:58;8.88;;;1.75;;
61093;SDS011;46976;52.942;6.810;2023-10-08T14:08:32;7.85;;;1.23;;
61093;SDS011;46976;52.942;6.810;2023-10-08T14:10:58;7.85;;;1.70;;
61093;SDS011;46976;52.942;6.810;2023-10-08T14:13:31;8.00;;;1.48;;
61093;SDS011;46976;52.942;6.810;2023-10-08T14:16:01;7.95;;;1.38;;
61093;SDS011;46976;52.942;6.810;2023-10-08T14:18:33;8.05;;;1.50;;
61093;SDS011;46976;52.942;6.810;2023-10-08T14:21:09;8.50;;;1.40;;
61093;SDS011;46976;52.942;6.810;2023-10-08T14:23:38;6.00;;;1.17;;
61093;SDS011;46976;52.942;6.810;2023-10-08T14:26:08;6.05;;;1.20;;
61093;SDS011;46976;52.942;6.810;2023-10-08T14:28:37;7.75;;;1.40;;
61093;SDS011;46976;52.942;6.810;2023-10-08T14:31:09;8.65;;;1.50;;
61093;SDS011;46976;52.942;6.810;2023-10-08T14:33:41;9.48;;;1.80;;
61093;SDS011;46976;52.942;6.810;2023-10-08T14:36:09;6.95;;;1.38;;
61093;SDS011;46976;52.942;6.810;2023-10-08T14:38:53;7.20;;;1.60;;
61093;SDS011;46976;52.942;6.810;2023-10-08T14:41:38;8.15;;;1.38;;
61093;SDS011;46976;52.942;6.810;2023-10-08T14:44:22;6.65;;;1.50;;
61093;SDS011;46976;52.942;6.810;2023-10-08T14:46:48;7.32;;;1.48;;
61093;SDS011;46976;52.942;6.810;2023-10-08T14:49:15;7.30;;;1.42;;
61093;SDS011;46976;52.942;6.810;2023-10-08T14:51:42;7.97;;;1.60;;
61093;SDS011;46976;52.942;6.810;2023-10-08T14:54:08;7.75;;;1.50;;
61093;SDS011;46976;52.942;6.810;2023-10-08T14:56:35;6.80;;;1.65;;
61093;SDS011;46976;52.942;6.810;2023-10-08T14:59:02;7.93;;;1.60;;
61093;SDS011;46976;52.942;6.810;2023-10-08T15:01:29;6.70;;;1.48;;
61093;SDS011;46976;52.942;6.810;2023-10-08T15:03:58;7.00;;;1.48;;
61093;SDS011;46976;52.942;6.810;2023-10-08T15:06:28;6.57;;;1.40;;
61093;SDS011;46976;52.942;6.810;2023-10-08T15:08:58;6.75;;;1.20;;
61093;SDS011;46976;52.942;6.810;2023-10-08T15:11:24;7.57;;;1.50;;
61093;SDS011;46976;52.942;6.810;2023-10-08T15:13:56;8.45;;;1.42;;
61093;SDS011;46976;52.942;6.810;2023-10-08T15:16:22;7.82;;;1.50;;
61093;SDS011;46976;52.942;6.810;2023-10-08T15:18:52;8.25;;;1.60;;
61093;SDS011;46976;52.942;6.810;2023-10-08T15:21:18;7.95;;;1.90;;
61093;SDS011;46976;52.942;6.810;2023-10-08T15:23:44;9.43;;;2.13;;
61093;SDS011;46976;52.942;6.810;2023-10-08T15:26:10;11.20;;;2.08;;
61093;SDS011;46976;52.942;6.810;2023-10-08T15:28:37;5.63;;;1.60;;
61093;SDS011;46976;52.942;6.810;2023-10-08T15:31:04;6.72;;;1.50;;